createdAt,value
2017-06-16T00:00:07.810Z,100.9
2017-06-16T00:01:06.927Z,101
2017-06-16T00:02:06.665Z,100.9
2017-06-16T00:03:05.778Z,100.8
2017-06-16T00:04:05.161Z,100.8
2017-06-16T00:05:04.277Z,100.9
2017-06-16T00:06:03.510Z,101
2017-06-16T00:07:03.007Z,101.1
2017-06-16T00:07:33.437Z,101.1
2017-06-16T00:08:04.130Z,101.1
2017-06-16T00:08:34.675Z,101.1
2017-06-16T00:10:00.964Z,101
2017-06-16T00:11:00.164Z,101.1
2017-06-16T00:11:59.779Z,101
2017-06-16T00:12:59.000Z,101.1
2017-06-16T00:13:58.228Z,101.1
2017-06-16T00:14:57.457Z,101.2
2017-06-16T00:15:56.757Z,101.2
2017-06-16T00:16:56.373Z,101.2
2017-06-16T00:17:55.602Z,101.2
2017-06-16T00:18:54.718Z,101.1
2017-06-16T00:19:54.450Z,101.3
2017-06-16T00:20:53.444Z,101.2
2017-06-16T00:21:52.679Z,101.4
2017-06-16T00:22:52.414Z,101.4
2017-06-16T00:23:51.419Z,101.4
2017-06-16T00:25:50.115Z,101.3
2017-06-16T00:27:48.621Z,101.2
2017-06-16T00:28:48.236Z,101
2017-06-16T00:29:47.478Z,101
2017-06-16T00:30:46.701Z,101
2017-06-16T00:31:46.579Z,101
2017-06-16T00:32:45.244Z,101
2017-06-16T00:33:45.055Z,101
2017-06-16T00:34:44.596Z,101
2017-06-16T00:35:43.653Z,101.1
2017-06-16T00:36:42.648Z,101.1
2017-06-16T00:37:42.142Z,101.3
2017-06-16T00:38:41.635Z,101.3
2017-06-16T00:39:40.874Z,101.3
2017-06-16T00:40:40.105Z,101.5
2017-06-16T00:41:39.225Z,101.5
2017-06-16T00:42:38.956Z,101.5
2017-06-16T00:43:38.069Z,101.3
2017-06-16T00:44:37.179Z,101.3
2017-06-16T00:45:36.559Z,101.2
2017-06-16T00:46:35.785Z,100.6
2017-06-16T00:47:35.517Z,100.8
2017-06-16T00:48:34.784Z,100.8
2017-06-16T00:49:34.008Z,101
2017-06-16T00:50:33.247Z,101
2017-06-16T00:51:32.479Z,101
2017-06-16T00:52:31.781Z,101
2017-06-16T00:53:31.274Z,101
2017-06-16T00:54:30.398Z,101.1
2017-06-16T00:55:30.126Z,101
2017-06-16T00:56:29.356Z,101
2017-06-16T00:57:28.548Z,101.2
2017-06-16T00:58:27.847Z,100.9
2017-06-16T00:59:27.344Z,100.8
2017-06-16T01:00:26.579Z,101
2017-06-16T01:01:25.692Z,101.1
2017-06-16T01:02:25.307Z,101.2
2017-06-16T01:03:24.420Z,101.3
2017-06-16T01:04:23.721Z,101.3
2017-06-16T01:05:22.954Z,101.3
2017-06-16T01:06:22.764Z,101.2
2017-06-16T01:09:20.268Z,101
2017-06-16T01:10:19.999Z,101
2017-06-16T01:11:19.235Z,101.2
2017-06-16T01:12:18.463Z,100.9
2017-06-16T01:13:17.844Z,100.9
2017-06-16T01:14:17.218Z,100.9
2017-06-16T01:16:15.938Z,101.2
2017-06-16T01:17:15.168Z,101.2
2017-06-16T01:18:14.432Z,101.1
2017-06-16T01:19:13.547Z,101.2
2017-06-16T01:20:13.287Z,101.2
2017-06-16T01:21:12.514Z,101.1
2017-06-16T01:22:11.738Z,101.2
2017-06-16T01:23:10.966Z,101.2
2017-06-16T01:24:10.199Z,101.3
2017-06-16T01:25:09.818Z,101.3
2017-06-16T01:27:08.439Z,101.4
2017-06-16T01:28:07.555Z,101.3
2017-06-16T01:29:07.177Z,101.2
2017-06-16T01:30:06.410Z,101.4
2017-06-16T01:31:05.554Z,101.3
2017-06-16T01:32:05.181Z,101.1
2017-06-16T01:33:04.296Z,101.3
2017-06-16T01:34:03.531Z,101.2
2017-06-16T01:35:02.766Z,101.2
2017-06-16T01:36:02.268Z,101.2
2017-06-16T01:37:01.496Z,101.1
2017-06-16T01:38:01.111Z,101.2
2017-06-16T01:39:00.313Z,101.3
2017-06-16T01:39:59.545Z,101.3
2017-06-16T01:40:58.786Z,101.1
2017-06-16T01:41:58.016Z,101.1
2017-06-16T01:42:57.749Z,100.9
2017-06-16T01:43:56.982Z,100.9
2017-06-16T01:44:56.223Z,100.9
2017-06-16T01:45:55.455Z,101.1
2017-06-16T01:46:54.688Z,101.3
2017-06-16T01:47:54.422Z,101.3
2017-06-16T01:48:53.656Z,101.3
2017-06-16T01:49:52.885Z,101.2
2017-06-16T01:50:52.119Z,101.3
2017-06-16T01:51:51.354Z,101.3
2017-06-16T01:52:50.585Z,101.3
2017-06-16T01:53:50.321Z,101.4
2017-06-16T01:54:49.580Z,101.3
2017-06-16T01:55:48.591Z,101.4
2017-06-16T01:56:48.320Z,101.4
2017-06-16T01:57:47.476Z,101.3
2017-06-16T01:58:46.582Z,101.4
2017-06-16T01:59:45.816Z,101.3
2017-06-16T02:00:45.618Z,101.2
2017-06-16T02:01:44.737Z,101.1
2017-06-16T02:02:43.848Z,101.2
2017-06-16T02:03:43.576Z,101.1
2017-06-16T02:04:42.809Z,101.2
2017-06-16T02:05:41.918Z,101.1
2017-06-16T02:06:41.147Z,100.9
2017-06-16T02:07:40.646Z,100.8
2017-06-16T02:08:39.882Z,100.7
2017-06-16T02:09:39.122Z,100.7
2017-06-16T02:10:38.355Z,101
2017-06-16T02:11:37.737Z,100.4
2017-06-16T02:12:37.233Z,100.5
2017-06-16T02:13:37.045Z,100.7
2017-06-16T02:15:35.159Z,100.8
2017-06-16T02:16:34.391Z,100.8
2017-06-16T02:17:34.012Z,100.7
2017-06-16T02:18:33.261Z,100.6
2017-06-16T02:19:32.370Z,100.7
2017-06-16T02:20:31.601Z,100.9
2017-06-16T02:21:31.222Z,100.9
2017-06-16T02:22:30.474Z,100.5
2017-06-16T02:23:29.704Z,100.8
2017-06-16T02:24:00.249Z,100.8
2017-06-16T02:24:30.669Z,100.8
2017-06-16T02:25:01.207Z,100.8
2017-06-16T02:25:31.756Z,100.9
2017-06-16T02:26:02.764Z,100.9
2017-06-16T02:27:27.154Z,101.1
2017-06-16T02:28:26.270Z,101.2
2017-06-16T02:29:25.501Z,100.8
2017-06-16T02:31:24.125Z,101
2017-06-16T02:32:23.864Z,101
2017-06-16T02:33:23.169Z,101.1
2017-06-16T02:34:22.278Z,101.1
2017-06-16T02:35:21.513Z,101.2
2017-06-16T02:36:20.745Z,101.3
2017-06-16T02:37:20.126Z,100.9
2017-06-16T02:38:19.862Z,101
2017-06-16T02:39:19.088Z,101
2017-06-16T02:40:18.326Z,100.8
2017-06-16T02:41:17.551Z,100.7
2017-06-16T02:42:16.789Z,101.1
2017-06-16T02:43:16.021Z,101.2
2017-06-16T02:45:15.028Z,101.1
2017-06-16T02:46:14.144Z,101.3
2017-06-16T02:47:13.374Z,101.4
2017-06-16T02:48:12.605Z,101.1
2017-06-16T02:49:12.343Z,100.9
2017-06-16T02:50:11.454Z,101.1
2017-06-16T02:51:10.690Z,101.2
2017-06-16T02:52:09.925Z,101.1
2017-06-16T02:53:09.670Z,101.2
2017-06-16T02:54:08.904Z,101.3
2017-06-16T02:55:08.142Z,101.2
2017-06-16T02:56:07.370Z,101.3
2017-06-16T02:57:06.376Z,101.2
2017-06-16T02:58:05.869Z,101.3
2017-06-16T02:58:36.293Z,101.3
2017-06-16T02:59:06.848Z,101.5
2017-06-16T03:00:04.569Z,101.6
2017-06-16T03:01:04.187Z,101.5
2017-06-16T03:02:03.416Z,101.5
2017-06-16T03:03:02.530Z,101.5
2017-06-16T03:04:02.030Z,101.6
2017-06-16T03:05:01.262Z,101.6
2017-06-16T03:06:00.373Z,101.6
2017-06-16T03:07:00.103Z,101.6
2017-06-16T03:07:59.340Z,101.3
2017-06-16T03:08:58.454Z,101.4
2017-06-16T03:09:57.684Z,101.5
2017-06-16T03:10:57.304Z,101.3
2017-06-16T03:12:55.883Z,101.3
2017-06-16T03:13:54.998Z,101.3
2017-06-16T03:14:54.304Z,101.2
2017-06-16T03:15:53.534Z,101.1
2017-06-16T03:16:53.151Z,101
2017-06-16T03:17:52.260Z,101.3
2017-06-16T03:18:51.490Z,101.2
2017-06-16T03:19:51.107Z,101.3
2017-06-16T03:20:50.349Z,101.3
2017-06-16T03:21:49.459Z,101.1
2017-06-16T03:23:48.462Z,101.4
2017-06-16T03:24:47.701Z,100.9
2017-06-16T03:25:47.004Z,101
2017-06-16T03:26:46.119Z,100.9
2017-06-16T03:27:45.355Z,101
2017-06-16T03:28:45.032Z,100.7
2017-06-16T03:29:44.160Z,100.8
2017-06-16T03:30:43.272Z,100.4
2017-06-16T03:31:42.889Z,100.7
2017-06-16T03:32:42.000Z,100.9
2017-06-16T03:34:41.000Z,100.7
2017-06-16T03:35:40.110Z,100.7
2017-06-16T03:36:39.343Z,100.8
2017-06-16T03:38:37.922Z,100.7
2017-06-16T03:39:37.530Z,100.8
2017-06-16T03:40:36.648Z,101.1
2017-06-16T03:41:35.875Z,101.1
2017-06-16T03:42:35.106Z,100.9
2017-06-16T03:43:34.838Z,101
2017-06-16T03:45:33.451Z,100.9
2017-06-16T03:46:32.675Z,100.8
2017-06-16T03:47:31.835Z,100.8
2017-06-16T03:48:31.070Z,100.8
2017-06-16T03:49:30.301Z,100.6
2017-06-16T03:50:29.920Z,100.6
2017-06-16T03:51:29.159Z,100
2017-06-16T03:52:28.272Z,99.9
2017-06-16T03:53:27.963Z,100.1
2017-06-16T03:54:27.189Z,100.2
2017-06-16T03:56:25.576Z,99.9
2017-06-16T03:57:25.309Z,100.2
2017-06-16T03:58:24.543Z,100
2017-06-16T03:59:23.772Z,100
2017-06-16T04:00:23.024Z,100
2017-06-16T04:01:22.257Z,99.5
2017-06-16T04:02:22.068Z,99.8
2017-06-16T04:03:20.801Z,99.5
2017-06-16T04:04:20.548Z,99.5
2017-06-16T04:05:19.777Z,99.6
2017-06-16T04:06:19.082Z,99.7
2017-06-16T04:07:18.322Z,99.6
2017-06-16T04:08:17.621Z,99.8
2017-06-16T04:09:16.851Z,99.6
2017-06-16T04:10:16.081Z,99.7
2017-06-16T04:11:15.308Z,99.1
2017-06-16T04:13:14.508Z,99
2017-06-16T04:14:13.733Z,99
2017-06-16T04:15:12.985Z,99.4
2017-06-16T04:16:12.212Z,99
2017-06-16T04:17:11.447Z,99.3
2017-06-16T04:18:10.558Z,99.2
2017-06-16T04:19:10.171Z,98.9
2017-06-16T04:20:09.277Z,99.1
2017-06-16T04:21:08.900Z,99.1
2017-06-16T04:22:08.130Z,99.1
2017-06-16T04:23:07.134Z,99
2017-06-16T04:24:06.874Z,99.1
2017-06-16T04:25:06.013Z,99.2
2017-06-16T04:26:05.247Z,99
2017-06-16T04:27:04.325Z,98.7
2017-06-16T04:28:03.938Z,98.8
2017-06-16T04:29:03.123Z,98.9
2017-06-16T04:30:02.348Z,98.9
2017-06-16T04:31:02.108Z,98.8
2017-06-16T04:32:01.341Z,98.7
2017-06-16T04:33:00.662Z,98.8
2017-06-16T04:33:59.776Z,99.2
2017-06-16T04:34:59.007Z,99
2017-06-16T04:36:57.934Z,98
2017-06-16T04:37:57.169Z,98.3
2017-06-16T04:38:56.279Z,98.7
2017-06-16T04:39:55.666Z,98
2017-06-16T04:40:54.899Z,98
2017-06-16T04:41:54.201Z,98.1
2017-06-16T04:42:53.940Z,98.2
2017-06-16T04:43:53.202Z,97.8
2017-06-16T04:44:52.392Z,97.8
2017-06-16T04:45:51.502Z,98.1
2017-06-16T04:46:51.131Z,98.5
2017-06-16T04:47:50.379Z,98.9
2017-06-16T04:48:49.376Z,98.6
2017-06-16T04:49:49.104Z,98.8
2017-06-16T04:50:48.301Z,98.7
2017-06-16T04:51:47.528Z,98.7
2017-06-16T04:53:46.148Z,99.3
2017-06-16T04:54:45.377Z,99.2
2017-06-16T04:55:44.488Z,99.1
2017-06-16T04:56:44.222Z,99.1
2017-06-16T04:57:43.330Z,99
2017-06-16T04:58:42.567Z,98.9
2017-06-16T04:59:42.298Z,98.9
2017-06-16T05:00:41.414Z,98.8
2017-06-16T05:01:40.639Z,99.1
2017-06-16T05:02:39.876Z,99.1
2017-06-16T05:03:39.494Z,99.1
2017-06-16T05:04:38.761Z,98.9
2017-06-16T05:05:37.875Z,99.3
2017-06-16T05:06:37.619Z,98.9
2017-06-16T05:07:37.304Z,98.8
2017-06-16T05:08:35.917Z,98.9
2017-06-16T05:09:35.145Z,99.1
2017-06-16T05:11:33.778Z,99
2017-06-16T05:12:33.516Z,98.8
2017-06-16T05:13:32.628Z,99.1
2017-06-16T05:14:31.852Z,98.7
2017-06-16T05:15:31.468Z,98.7
2017-06-16T05:16:30.579Z,98.9
2017-06-16T05:17:30.264Z,99
2017-06-16T05:18:28.995Z,98.9
2017-06-16T05:19:28.723Z,98.8
2017-06-16T05:20:28.023Z,99
2017-06-16T05:21:27.253Z,99.1
2017-06-16T05:22:26.484Z,98.8
2017-06-16T05:23:26.102Z,99.1
2017-06-16T05:24:25.216Z,98.8
2017-06-16T05:25:24.327Z,98.5
2017-06-16T05:27:22.947Z,98.2
2017-06-16T05:28:22.679Z,98.6
2017-06-16T05:29:21.914Z,98.3
2017-06-16T05:30:21.149Z,98.6
2017-06-16T05:31:20.255Z,98.8
2017-06-16T05:32:19.874Z,98.7
2017-06-16T05:33:19.175Z,98.5
2017-06-16T05:34:18.410Z,98.3
2017-06-16T05:35:17.605Z,98.2
2017-06-16T05:36:16.838Z,98.6
2017-06-16T05:37:16.457Z,98.4
2017-06-16T05:38:15.701Z,98.1
2017-06-16T05:39:14.940Z,98.1
2017-06-16T05:40:14.559Z,98.4
2017-06-16T05:41:13.783Z,97.6
2017-06-16T05:42:12.896Z,97.6
2017-06-16T05:43:12.121Z,97.2
2017-06-16T05:44:11.855Z,97.3
2017-06-16T05:45:11.078Z,97.6
2017-06-16T05:46:10.188Z,98
2017-06-16T05:47:09.803Z,98
2017-06-16T05:48:09.040Z,98.1
2017-06-16T05:49:08.033Z,98.3
2017-06-16T05:50:07.539Z,97.9
2017-06-16T05:51:06.800Z,97.9
2017-06-16T05:52:06.028Z,97.9
2017-06-16T05:53:05.533Z,97.9
2017-06-16T05:54:04.764Z,98
2017-06-16T05:55:04.260Z,97.8
2017-06-16T05:56:03.450Z,97.6
2017-06-16T05:57:02.682Z,97.8
2017-06-16T05:59:01.578Z,97.7
2017-06-16T06:00:00.763Z,97.8
2017-06-16T06:00:59.993Z,97.8
2017-06-16T06:01:59.728Z,97.6
2017-06-16T06:02:58.845Z,97.6
2017-06-16T06:03:58.073Z,96.8
2017-06-16T06:04:57.705Z,97.3
2017-06-16T06:05:56.941Z,96.9
2017-06-16T06:07:55.525Z,97
2017-06-16T06:08:54.636Z,96.6
2017-06-16T06:09:54.250Z,96.3
2017-06-16T06:10:53.481Z,96
2017-06-16T06:11:52.598Z,96.4
2017-06-16T06:12:52.213Z,96.5
2017-06-16T06:13:51.201Z,96.2
2017-06-16T06:14:50.935Z,95.8
2017-06-16T06:15:50.164Z,96
2017-06-16T06:16:49.274Z,95.4
2017-06-16T06:17:48.884Z,94.9
2017-06-16T06:18:48.258Z,94.7
2017-06-16T06:19:47.367Z,95.2
2017-06-16T06:20:46.611Z,94.9
2017-06-16T06:21:45.724Z,94.1
2017-06-16T06:22:45.461Z,94.6
2017-06-16T06:23:44.960Z,93.7
2017-06-16T06:24:43.956Z,93.5
2017-06-16T06:25:43.067Z,93.6
2017-06-16T06:26:42.805Z,93.3
2017-06-16T06:27:42.302Z,93.6
2017-06-16T06:28:41.537Z,92.8
2017-06-16T06:29:40.766Z,91.5
2017-06-16T06:30:39.879Z,91.9
2017-06-16T06:31:39.611Z,91.7
2017-06-16T06:32:38.730Z,91.7
2017-06-16T06:33:37.998Z,92.2
2017-06-16T06:34:37.231Z,92.8
2017-06-16T06:35:36.967Z,92
2017-06-16T06:36:07.511Z,92
2017-06-16T06:36:38.051Z,91.5
2017-06-16T06:37:35.306Z,91.1
2017-06-16T06:38:35.042Z,90.7
2017-06-16T06:39:34.284Z,90.9
2017-06-16T06:40:33.519Z,91.3
2017-06-16T06:41:33.344Z,91.2
2017-06-16T06:42:32.016Z,91.5
2017-06-16T06:44:30.525Z,91.1
2017-06-16T06:45:30.145Z,90.8
2017-06-16T06:46:29.376Z,91.3
2017-06-16T06:47:29.110Z,91.2
2017-06-16T06:48:28.342Z,90.5
2017-06-16T06:49:27.579Z,91.2
2017-06-16T06:50:26.816Z,91
2017-06-16T06:51:26.433Z,91.1
2017-06-16T06:52:25.664Z,91.3
2017-06-16T06:53:24.895Z,90.4
2017-06-16T06:54:24.124Z,90.9
2017-06-16T06:55:23.739Z,91
2017-06-16T06:56:22.972Z,90.8
2017-06-16T06:57:22.203Z,90.9
2017-06-16T06:58:21.459Z,89.9
2017-06-16T06:59:21.209Z,87.8
2017-06-16T07:00:20.323Z,87.9
2017-06-16T07:01:19.552Z,87.1
2017-06-16T07:02:19.053Z,87.5
2017-06-16T07:03:18.248Z,87.5
2017-06-16T07:04:17.976Z,87
2017-06-16T07:05:17.089Z,87.4
2017-06-16T07:06:16.708Z,87.1
2017-06-16T07:07:15.946Z,86.8
2017-06-16T07:08:15.814Z,87.2
2017-06-16T07:09:14.536Z,87.4
2017-06-16T07:10:13.762Z,87.9
2017-06-16T07:11:13.071Z,87.1
2017-06-16T07:12:12.758Z,86.8
2017-06-16T07:13:11.870Z,85.8
2017-06-16T07:14:11.114Z,86
2017-06-16T07:15:10.737Z,85.4
2017-06-16T07:16:10.041Z,85.9
2017-06-16T07:17:09.160Z,86
2017-06-16T07:18:08.896Z,85.5
2017-06-16T07:19:08.014Z,85.3
2017-06-16T07:20:07.128Z,85
2017-06-16T07:21:06.863Z,84.9
2017-06-16T07:23:05.483Z,85.4
2017-06-16T07:24:04.715Z,85
2017-06-16T07:25:04.459Z,84.9
2017-06-16T07:26:03.656Z,85.3
2017-06-16T07:27:02.892Z,84.6
2017-06-16T07:28:02.010Z,85.1
2017-06-16T07:29:01.388Z,85.7
2017-06-16T07:30:01.009Z,84.4
2017-06-16T07:31:00.275Z,84.4
2017-06-16T07:31:59.506Z,83.7
2017-06-16T07:32:59.241Z,83.5
2017-06-16T07:33:58.479Z,83
2017-06-16T07:34:57.708Z,82.8
2017-06-16T07:35:56.947Z,82.9
2017-06-16T07:36:56.634Z,82.8
2017-06-16T07:37:55.878Z,83
2017-06-16T07:38:55.196Z,83.6
2017-06-16T07:39:54.427Z,83.5
2017-06-16T07:40:54.046Z,83.6
2017-06-16T07:41:53.160Z,83.8
2017-06-16T07:42:23.846Z,83.8
2017-06-16T07:42:54.384Z,83.5
2017-06-16T07:43:24.924Z,83.5
2017-06-16T07:43:55.472Z,83.6
2017-06-16T07:44:26.028Z,83.6
2017-06-16T07:45:50.925Z,82.8
2017-06-16T07:46:50.157Z,82.4
2017-06-16T07:47:49.270Z,82.6
2017-06-16T07:48:49.003Z,82.8
2017-06-16T07:49:48.123Z,82.9
2017-06-16T07:50:47.425Z,82.3
2017-06-16T07:51:47.039Z,82.5
2017-06-16T07:52:46.147Z,81.5
2017-06-16T07:53:45.383Z,80.5
2017-06-16T07:54:44.990Z,80.5
2017-06-16T07:55:44.106Z,80.4
2017-06-16T07:56:43.727Z,80.6
2017-06-16T07:57:42.833Z,81.3
2017-06-16T07:58:42.561Z,80.9
2017-06-16T07:59:41.788Z,80.4
2017-06-16T08:00:41.010Z,81
2017-06-16T08:01:40.235Z,81.1
2017-06-16T08:02:40.544Z,81.2
2017-06-16T08:03:39.273Z,81.7
2017-06-16T08:04:38.389Z,81
2017-06-16T08:05:38.002Z,81.3
2017-06-16T08:06:37.319Z,80.8
2017-06-16T08:07:36.619Z,81.7
2017-06-16T08:08:36.240Z,81.9
2017-06-16T08:09:35.233Z,81.2
2017-06-16T08:10:34.479Z,81.3
2017-06-16T08:11:34.220Z,81.5
2017-06-16T08:12:33.459Z,81.6
2017-06-16T08:13:32.579Z,82.2
2017-06-16T08:14:32.312Z,81.9
2017-06-16T08:15:31.547Z,81.9
2017-06-16T08:16:30.661Z,81.9
2017-06-16T08:17:30.397Z,82.6
2017-06-16T08:18:29.513Z,82.8
2017-06-16T08:19:28.751Z,82.7
2017-06-16T08:21:27.770Z,83.4
2017-06-16T08:22:27.001Z,83.5
2017-06-16T08:23:26.235Z,83.7
2017-06-16T08:24:25.479Z,83.7
2017-06-16T08:25:25.098Z,83.8
2017-06-16T08:26:24.334Z,83.6
2017-06-16T08:28:22.954Z,83.7
2017-06-16T08:29:22.683Z,83.2
2017-06-16T08:31:21.308Z,83.3
2017-06-16T08:32:20.534Z,82.6
2017-06-16T08:33:19.733Z,82.2
2017-06-16T08:34:19.354Z,82.3
2017-06-16T08:35:18.348Z,82.4
2017-06-16T08:36:17.974Z,82.3
2017-06-16T08:37:17.147Z,82.3
2017-06-16T08:38:16.888Z,82.4
2017-06-16T08:39:16.125Z,82.7
2017-06-16T08:40:15.237Z,82.2
2017-06-16T08:41:14.465Z,82.7
2017-06-16T08:42:14.204Z,82.6
2017-06-16T08:43:13.431Z,82.3
2017-06-16T08:44:12.503Z,82.5
2017-06-16T08:45:12.238Z,82.2
2017-06-16T08:46:11.473Z,81.2
2017-06-16T08:47:10.776Z,81.4
2017-06-16T08:48:10.007Z,81.4
2017-06-16T08:49:09.743Z,81.8
2017-06-16T08:50:08.857Z,81.7
2017-06-16T08:51:08.354Z,81.5
2017-06-16T08:52:07.592Z,81.6
2017-06-16T08:53:06.821Z,82.2
2017-06-16T08:54:06.436Z,81.7
2017-06-16T08:55:05.431Z,82
2017-06-16T08:56:04.927Z,82
2017-06-16T08:57:04.542Z,81.3
2017-06-16T08:58:03.772Z,80.5
2017-06-16T08:59:02.997Z,80.8
2017-06-16T09:00:02.225Z,81
2017-06-16T09:01:01.539Z,80.8
2017-06-16T09:02:01.350Z,80.7
2017-06-16T09:03:00.222Z,80.5
2017-06-16T09:03:59.952Z,80.5
2017-06-16T09:04:59.256Z,80.2
2017-06-16T09:05:58.365Z,80.6
2017-06-16T09:06:58.099Z,79.9
2017-06-16T09:07:57.164Z,80.4
2017-06-16T09:08:56.396Z,80.5
2017-06-16T09:09:56.016Z,80.5
2017-06-16T09:10:55.194Z,81.2
2017-06-16T09:11:54.814Z,80
2017-06-16T09:12:53.805Z,80.6
2017-06-16T09:13:53.541Z,79.3
2017-06-16T09:14:52.767Z,78.4
2017-06-16T09:15:51.763Z,78.3
2017-06-16T09:16:51.267Z,77.5
2017-06-16T09:17:50.999Z,77.6
2017-06-16T09:18:50.242Z,76.9
2017-06-16T09:20:48.746Z,75.5
2017-06-16T09:21:47.982Z,76.1
2017-06-16T09:22:47.713Z,76.2
2017-06-16T09:23:46.944Z,76
2017-06-16T09:25:45.495Z,76.9
2017-06-16T09:27:44.149Z,75.9
2017-06-16T09:28:43.959Z,76.4
2017-06-16T09:29:43.069Z,76.5
2017-06-16T09:30:42.694Z,77.5
2017-06-16T09:31:41.927Z,78.2
2017-06-16T09:32:41.041Z,78.5
2017-06-16T09:33:40.354Z,79.1
2017-06-16T09:34:39.971Z,80.3
2017-06-16T09:35:38.965Z,81.3
2017-06-16T09:36:38.580Z,82.5
2017-06-16T09:37:37.808Z,83.5
2017-06-16T09:38:37.631Z,83
2017-06-16T09:40:36.254Z,84
2017-06-16T09:41:35.367Z,85
2017-06-16T09:42:34.675Z,85.5
2017-06-16T09:43:33.973Z,85
2017-06-16T09:44:33.709Z,86
2017-06-16T09:45:32.940Z,86.3
2017-06-16T09:46:32.171Z,85.7
2017-06-16T09:47:31.395Z,87
2017-06-16T09:48:30.700Z,86.2
2017-06-16T09:49:30.432Z,87.6
2017-06-16T09:50:29.736Z,89
2017-06-16T09:51:28.987Z,89.3
2017-06-16T09:52:28.217Z,87.9
2017-06-16T09:53:27.446Z,87.4
2017-06-16T09:54:27.060Z,88.4
2017-06-16T09:55:26.295Z,89
2017-06-16T09:56:25.908Z,90.2
2017-06-16T09:57:25.095Z,89.3
2017-06-16T09:58:24.411Z,89
2017-06-16T09:59:23.640Z,89.2
2017-06-16T10:00:22.882Z,87.4
2017-06-16T10:01:22.182Z,87.9
2017-06-16T10:03:21.345Z,87.7
2017-06-16T10:04:20.585Z,87.1
2017-06-16T10:05:19.694Z,88.4
2017-06-16T10:06:19.305Z,86.4
2017-06-16T10:07:18.560Z,86.8
2017-06-16T10:08:17.640Z,85.2
2017-06-16T10:09:16.868Z,87.5
2017-06-16T10:10:16.614Z,86.4
2017-06-16T10:11:15.840Z,84.6
2017-06-16T10:12:15.069Z,85
2017-06-16T10:13:14.302Z,85.8
2017-06-16T10:14:13.537Z,85.3
2017-06-16T10:15:13.196Z,85.7
2017-06-16T10:16:12.317Z,86.1
2017-06-16T10:17:11.937Z,84.2
2017-06-16T10:18:10.930Z,84.8
2017-06-16T10:19:10.666Z,84.2
2017-06-16T10:20:09.897Z,83.3
2017-06-16T10:21:09.127Z,84
2017-06-16T10:22:08.354Z,83.3
2017-06-16T10:23:07.597Z,84.1
2017-06-16T10:24:06.708Z,83.5
2017-06-16T10:25:06.584Z,85.3
2017-06-16T10:26:05.692Z,85.6
2017-06-16T10:27:05.074Z,85.6
2017-06-16T10:28:04.579Z,85
2017-06-16T10:29:03.810Z,85.7
2017-06-16T10:30:03.118Z,86
2017-06-16T10:31:02.356Z,85.9
2017-06-16T10:32:01.480Z,86.5
2017-06-16T10:33:01.212Z,87.7
2017-06-16T10:34:00.445Z,89.2
2017-06-16T10:34:59.564Z,89.3
2017-06-16T10:35:58.946Z,90.1
2017-06-16T10:36:58.048Z,90.3
2017-06-16T10:37:57.665Z,90.8
2017-06-16T10:38:56.661Z,89.5
2017-06-16T10:39:56.160Z,89.5
2017-06-16T10:40:55.397Z,88.8
2017-06-16T10:41:54.630Z,89
2017-06-16T10:42:53.936Z,90.3
2017-06-16T10:43:53.432Z,90
2017-06-16T10:44:52.671Z,89.3
2017-06-16T10:45:52.485Z,89.1
2017-06-16T10:46:51.213Z,88.1
2017-06-16T10:47:50.950Z,86.5
2017-06-16T10:48:50.179Z,88
2017-06-16T10:49:49.407Z,87.8
2017-06-16T10:50:48.639Z,88.7
2017-06-16T10:51:47.872Z,88.1
2017-06-16T10:52:47.101Z,88
2017-06-16T10:53:46.485Z,88.4
2017-06-16T10:54:45.798Z,87.1
2017-06-16T10:55:45.030Z,87.5
2017-06-16T10:56:44.766Z,88.6
2017-06-16T10:57:44.575Z,86.8
2017-06-16T10:58:43.311Z,84.7
2017-06-16T10:59:42.541Z,83.5
2017-06-16T11:00:41.769Z,84.3
2017-06-16T11:01:40.998Z,85.2
2017-06-16T11:02:40.141Z,85.6
2017-06-16T11:03:39.872Z,85.8
2017-06-16T11:04:38.988Z,85.3
2017-06-16T11:05:38.217Z,84.4
2017-06-16T11:06:37.943Z,83.9
2017-06-16T11:07:37.166Z,83.7
2017-06-16T11:08:36.394Z,84.2
2017-06-16T11:09:35.620Z,84.7
2017-06-16T11:10:34.854Z,83.5
2017-06-16T11:11:34.477Z,84.3
2017-06-16T11:12:33.704Z,83.4
2017-06-16T11:13:32.929Z,81.5
2017-06-16T11:14:32.040Z,80.4
2017-06-16T11:15:31.661Z,78.8
2017-06-16T11:16:30.891Z,79.4
2017-06-16T11:17:30.122Z,80.6
2017-06-16T11:18:29.315Z,81.5
2017-06-16T11:19:28.817Z,82.6
2017-06-16T11:20:28.050Z,78.6
2017-06-16T11:21:27.799Z,77.8
2017-06-16T11:22:27.039Z,77.3
2017-06-16T11:23:26.040Z,76.9
2017-06-16T11:24:25.352Z,77.1
2017-06-16T11:25:25.090Z,77.2
2017-06-16T11:26:24.324Z,78.2
2017-06-16T11:27:23.553Z,76.7
2017-06-16T11:28:22.786Z,75.2
2017-06-16T11:29:22.019Z,75
2017-06-16T11:30:21.642Z,75.3
2017-06-16T11:31:20.758Z,75.6
2017-06-16T11:32:20.395Z,75.3
2017-06-16T11:33:19.630Z,76.2
2017-06-16T11:34:18.862Z,74.3
2017-06-16T11:35:18.099Z,74
2017-06-16T11:36:17.841Z,73
2017-06-16T11:37:17.071Z,70.9
2017-06-16T11:38:16.302Z,71.1
2017-06-16T11:39:15.525Z,71.7
2017-06-16T11:40:15.138Z,71.2
2017-06-16T11:41:14.365Z,71
2017-06-16T11:42:13.865Z,71.1
2017-06-16T11:43:13.095Z,70
2017-06-16T11:44:12.338Z,71.3
2017-06-16T11:45:11.567Z,71
2017-06-16T11:46:11.181Z,71.3
2017-06-16T11:47:10.414Z,69.5
2017-06-16T11:48:09.664Z,70.3
2017-06-16T11:49:09.411Z,70.4
2017-06-16T11:50:08.401Z,70.8
2017-06-16T11:51:08.143Z,69
2017-06-16T11:52:07.143Z,70
2017-06-16T11:53:06.765Z,69.1
2017-06-16T11:54:05.875Z,68.4
2017-06-16T11:54:36.182Z,68.4
2017-06-16T11:55:06.485Z,66.8
2017-06-16T11:55:36.912Z,66.8
2017-06-16T11:56:07.451Z,67.7
2017-06-16T11:57:04.044Z,66
2017-06-16T11:58:03.545Z,65.9
2017-06-16T11:59:03.038Z,66
2017-06-16T12:00:02.159Z,66.6
2017-06-16T12:01:01.652Z,66.4
2017-06-16T12:02:00.887Z,67.6
2017-06-16T12:03:00.121Z,66.3
2017-06-16T12:03:59.737Z,65.3
2017-06-16T12:04:58.971Z,66.4
2017-06-16T12:05:58.468Z,64
2017-06-16T12:06:57.461Z,64.4
2017-06-16T12:07:57.074Z,64.9
2017-06-16T12:08:56.304Z,64.2
2017-06-16T12:09:55.545Z,63.3
2017-06-16T12:10:55.161Z,62.6
2017-06-16T12:11:54.393Z,62.4
2017-06-16T12:12:53.625Z,60.8
2017-06-16T12:13:53.361Z,60.8
2017-06-16T12:14:52.602Z,61.3
2017-06-16T12:15:51.837Z,60.1
2017-06-16T12:16:51.459Z,60.6
2017-06-16T12:17:50.640Z,60
2017-06-16T12:18:49.872Z,59.8
2017-06-16T12:19:49.609Z,60.2
2017-06-16T12:20:48.838Z,61.3
2017-06-16T12:21:48.074Z,59.2
2017-06-16T12:22:47.308Z,59.7
2017-06-16T12:23:46.688Z,59.9
2017-06-16T12:24:46.425Z,59.2
2017-06-16T12:25:45.626Z,59.5
2017-06-16T12:26:45.242Z,58.6
2017-06-16T12:27:44.481Z,57.8
2017-06-16T12:28:43.599Z,57.2
2017-06-16T12:29:43.098Z,57.4
2017-06-16T12:30:42.325Z,57.9
2017-06-16T12:31:42.061Z,58
2017-06-16T12:32:41.287Z,57.8
2017-06-16T12:33:40.404Z,58.6
2017-06-16T12:34:40.025Z,57.7
2017-06-16T12:35:39.251Z,57.8
2017-06-16T12:37:37.877Z,57.4
2017-06-16T12:39:37.001Z,57
2017-06-16T12:40:36.305Z,57
2017-06-16T12:41:35.414Z,57.2
2017-06-16T12:42:35.029Z,57.5
2017-06-16T12:44:33.650Z,57.9
2017-06-16T12:45:33.035Z,58.8
2017-06-16T12:46:32.268Z,58.8
2017-06-16T12:47:31.889Z,59.6
2017-06-16T12:48:31.006Z,60
2017-06-16T12:49:30.618Z,60.7
2017-06-16T12:50:30.433Z,60.7
2017-06-16T12:51:29.170Z,61.3
2017-06-16T12:52:28.418Z,62.1
2017-06-16T12:53:28.157Z,62.6
2017-06-16T12:54:27.280Z,62.6
2017-06-16T12:55:26.517Z,63.1
2017-06-16T12:56:26.259Z,63.3
2017-06-16T12:57:25.493Z,63.4
2017-06-16T12:58:24.732Z,64
2017-06-16T12:59:23.847Z,63.7
2017-06-16T13:00:23.586Z,63.4
2017-06-16T13:01:22.821Z,63.4
2017-06-16T13:02:22.058Z,63.1
2017-06-16T13:03:21.671Z,63.3
2017-06-16T13:04:20.903Z,62.8
2017-06-16T13:05:20.290Z,63.3
2017-06-16T13:06:19.523Z,63.1
2017-06-16T13:07:19.267Z,61.5
2017-06-16T13:09:17.769Z,60.1
2017-06-16T13:10:16.886Z,60
2017-06-16T13:11:16.505Z,59.8
2017-06-16T13:12:15.760Z,59.7
2017-06-16T13:13:15.499Z,59.8
2017-06-16T13:14:14.727Z,60.3
2017-06-16T13:15:13.840Z,61.7
2017-06-16T13:17:12.477Z,59.6
2017-06-16T13:18:12.091Z,60
2017-06-16T13:19:11.327Z,59.5
2017-06-16T13:20:10.561Z,60.4
2017-06-16T13:21:10.308Z,60.2
2017-06-16T13:22:09.544Z,59.9
2017-06-16T13:23:08.774Z,59.6
2017-06-16T13:24:08.006Z,59.7
2017-06-16T13:25:07.743Z,58.9
2017-06-16T13:26:06.971Z,58.3
2017-06-16T13:27:05.971Z,57.9
2017-06-16T13:28:05.462Z,57.9
2017-06-16T13:29:04.847Z,58.4
2017-06-16T13:31:03.825Z,59.1
2017-06-16T13:32:03.055Z,59.1
2017-06-16T13:33:02.669Z,60.1
2017-06-16T13:34:01.664Z,59.2
2017-06-16T13:35:01.421Z,59.1
2017-06-16T13:36:00.659Z,59.4
2017-06-16T13:36:59.778Z,59.6